sensor_id;sensor_type;location;lat;lon;timestamp;P1;durP1;ratioP1;P2;durP2;ratioP2
44276;SDS011;29973;43.742;1.236;2023-04-25T00:01:22;11.60;;;4.57;;
44276;SDS011;29973;43.742;1.236;2023-04-25T00:03:48;12.25;;;3.83;;
44276;SDS011;29973;43.742;1.236;2023-04-25T00:06:14;11.50;;;4.25;;
44276;SDS011;29973;43.742;1.236;2023-04-25T00:08:40;8.23;;;3.80;;
44276;SDS011;29973;43.742;1.236;2023-04-25T00:11:06;8.18;;;3.95;;
44276;SDS011;29973;43.742;1.236;2023-04-25T00:13:31;8.95;;;4.38;;
44276;SDS011;29973;43.742;1.236;2023-04-25T00:15:57;8.13;;;3.65;;
44276;SDS011;29973;43.742;1.236;2023-04-25T00:18:23;5.90;;;3.65;;
44276;SDS011;29973;43.742;1.236;2023-04-25T00:20:49;11.30;;;3.80;;
44276;SDS011;29973;43.742;1.236;2023-04-25T00:23:15;8.48;;;4.38;;
44276;SDS011;29973;43.742;1.236;2023-04-25T00:25:47;9.68;;;4.47;;
44276;SDS011;29973;43.742;1.236;2023-04-25T00:28:14;9.82;;;4.18;;
44276;SDS011;29973;43.742;1.236;2023-04-25T00:30:40;13.27;;;4.60;;
44276;SDS011;29973;43.742;1.236;2023-04-25T00:33:06;8.00;;;4.38;;
44276;SDS011;29973;43.742;1.236;2023-04-25T00:35:32;8.63;;;3.88;;
44276;SDS011;29973;43.742;1.236;2023-04-25T00:37:58;8.85;;;4.50;;
44276;SDS011;29973;43.742;1.236;2023-04-25T00:40:24;12.63;;;4.45;;
44276;SDS011;29973;43.742;1.236;2023-04-25T00:42:50;9.50;;;3.90;;
44276;SDS011;29973;43.742;1.236;2023-04-25T00:45:17;14.07;;;4.25;;
44276;SDS011;29973;43.742;1.236;2023-04-25T00:47:43;8.50;;;3.75;;
44276;SDS011;29973;43.742;1.236;2023-04-25T00:50:10;12.18;;;4.65;;
44276;SDS011;29973;43.742;1.236;2023-04-25T00:52:40;8.20;;;3.92;;
44276;SDS011;29973;43.742;1.236;2023-04-25T00:55:08;8.00;;;4.28;;
44276;SDS011;29973;43.742;1.236;2023-04-25T00:57:35;7.85;;;3.72;;
44276;SDS011;29973;43.742;1.236;2023-04-25T01:00:02;15.30;;;4.22;;
44276;SDS011;29973;43.742;1.236;2023-04-25T01:02:30;6.72;;;4.07;;
44276;SDS011;29973;43.742;1.236;2023-04-25T01:04:57;13.73;;;4.40;;
44276;SDS011;29973;43.742;1.236;2023-04-25T01:07:23;11.80;;;3.78;;
44276;SDS011;29973;43.742;1.236;2023-04-25T01:09:51;8.55;;;4.38;;
44276;SDS011;29973;43.742;1.236;2023-04-25T01:12:17;8.40;;;4.28;;
44276;SDS011;29973;43.742;1.236;2023-04-25T01:14:42;11.07;;;4.00;;
44276;SDS011;29973;43.742;1.236;2023-04-25T01:17:09;10.23;;;4.18;;
44276;SDS011;29973;43.742;1.236;2023-04-25T01:19:35;9.63;;;3.88;;
44276;SDS011;29973;43.742;1.236;2023-04-25T01:22:01;14.63;;;4.68;;
44276;SDS011;29973;43.742;1.236;2023-04-25T01:24:26;8.73;;;4.85;;
44276;SDS011;29973;43.742;1.236;2023-04-25T01:26:53;8.40;;;4.10;;
44276;SDS011;29973;43.742;1.236;2023-04-25T01:29:21;10.18;;;4.93;;
44276;SDS011;29973;43.742;1.236;2023-04-25T01:31:47;8.52;;;4.75;;
44276;SDS011;29973;43.742;1.236;2023-04-25T01:34:13;10.90;;;4.80;;
44276;SDS011;29973;43.742;1.236;2023-04-25T01:36:39;14.80;;;4.78;;
44276;SDS011;29973;43.742;1.236;2023-04-25T01:39:05;7.45;;;4.05;;
44276;SDS011;29973;43.742;1.236;2023-04-25T01:41:32;7.32;;;3.88;;
44276;SDS011;29973;43.742;1.236;2023-04-25T01:43:59;13.40;;;4.20;;
44276;SDS011;29973;43.742;1.236;2023-04-25T01:46:25;8.85;;;3.92;;
44276;SDS011;29973;43.742;1.236;2023-04-25T01:48:52;6.80;;;3.90;;
44276;SDS011;29973;43.742;1.236;2023-04-25T01:51:18;4.32;;;2.78;;
44276;SDS011;29973;43.742;1.236;2023-04-25T01:53:44;7.65;;;3.65;;
44276;SDS011;29973;43.742;1.236;2023-04-25T01:56:10;5.15;;;2.35;;
44276;SDS011;29973;43.742;1.236;2023-04-25T01:58:36;4.82;;;2.80;;
44276;SDS011;29973;43.742;1.236;2023-04-25T02:01:02;5.10;;;2.25;;
44276;SDS011;29973;43.742;1.236;2023-04-25T02:03:27;6.20;;;2.80;;
44276;SDS011;29973;43.742;1.236;2023-04-25T02:05:54;3.78;;;1.83;;
44276;SDS011;29973;43.742;1.236;2023-04-25T02:08:20;1.35;;;1.17;;
44276;SDS011;29973;43.742;1.236;2023-04-25T02:10:45;2.38;;;1.50;;
44276;SDS011;29973;43.742;1.236;2023-04-25T02:13:11;3.25;;;1.60;;
44276;SDS011;29973;43.742;1.236;2023-04-25T02:15:37;2.90;;;1.50;;
44276;SDS011;29973;43.742;1.236;2023-04-25T02:18:02;1.17;;;1.00;;
44276;SDS011;29973;43.742;1.236;2023-04-25T02:20:28;1.25;;;1.15;;
44276;SDS011;29973;43.742;1.236;2023-04-25T02:22:55;3.67;;;1.30;;
44276;SDS011;29973;43.742;1.236;2023-04-25T02:25:21;1.90;;;0.90;;
44276;SDS011;29973;43.742;1.236;2023-04-25T02:27:47;1.90;;;0.90;;
44276;SDS011;29973;43.742;1.236;2023-04-25T02:30:13;1.35;;;0.70;;
44276;SDS011;29973;43.742;1.236;2023-04-25T02:32:39;1.50;;;1.00;;
44276;SDS011;29973;43.742;1.236;2023-04-25T02:35:06;1.85;;;0.90;;
44276;SDS011;29973;43.742;1.236;2023-04-25T02:37:35;5.43;;;1.00;;
44276;SDS011;29973;43.742;1.236;2023-04-25T02:40:02;0.97;;;0.97;;
44276;SDS011;29973;43.742;1.236;2023-04-25T02:42:29;1.30;;;0.93;;
44276;SDS011;29973;43.742;1.236;2023-04-25T02:44:55;1.00;;;0.90;;
44276;SDS011;29973;43.742;1.236;2023-04-25T02:47:21;2.22;;;1.08;;
44276;SDS011;29973;43.742;1.236;2023-04-25T02:49:47;0.98;;;0.98;;
44276;SDS011;29973;43.742;1.236;2023-04-25T02:52:12;1.92;;;1.02;;
44276;SDS011;29973;43.742;1.236;2023-04-25T02:54:39;3.90;;;1.17;;
44276;SDS011;29973;43.742;1.236;2023-04-25T02:57:05;3.28;;;0.90;;
44276;SDS011;29973;43.742;1.236;2023-04-25T02:59:31;1.15;;;1.05;;
44276;SDS011;29973;43.742;1.236;2023-04-25T03:01:57;1.23;;;1.13;;
44276;SDS011;29973;43.742;1.236;2023-04-25T03:04:23;1.48;;;1.08;;
44276;SDS011;29973;43.742;1.236;2023-04-25T03:06:52;1.30;;;1.15;;
44276;SDS011;29973;43.742;1.236;2023-04-25T03:09:18;1.15;;;1.05;;
44276;SDS011;29973;43.742;1.236;2023-04-25T03:11:44;1.23;;;1.10;;
44276;SDS011;29973;43.742;1.236;2023-04-25T03:14:11;1.10;;;1.00;;
44276;SDS011;29973;43.742;1.236;2023-04-25T03:16:37;1.55;;;1.20;;
44276;SDS011;29973;43.742;1.236;2023-04-25T03:19:03;0.95;;;0.85;;
44276;SDS011;29973;43.742;1.236;2023-04-25T03:21:29;2.08;;;1.17;;
44276;SDS011;29973;43.742;1.236;2023-04-25T03:23:57;1.90;;;1.05;;
44276;SDS011;29973;43.742;1.236;2023-04-25T03:26:23;2.00;;;1.05;;
44276;SDS011;29973;43.742;1.236;2023-04-25T03:28:49;0.80;;;0.80;;
44276;SDS011;29973;43.742;1.236;2023-04-25T03:31:14;0.90;;;0.90;;
44276;SDS011;29973;43.742;1.236;2023-04-25T03:33:40;2.92;;;1.23;;
44276;SDS011;29973;43.742;1.236;2023-04-25T03:36:06;1.35;;;1.00;;
44276;SDS011;29973;43.742;1.236;2023-04-25T03:38:32;2.60;;;1.10;;
44276;SDS011;29973;43.742;1.236;2023-04-25T03:40:57;0.70;;;0.70;;
44276;SDS011;29973;43.742;1.236;2023-04-25T03:43:23;1.52;;;1.10;;
44276;SDS011;29973;43.742;1.236;2023-04-25T03:45:49;1.60;;;0.80;;
44276;SDS011;29973;43.742;1.236;2023-04-25T03:48:15;2.80;;;0.90;;
44276;SDS011;29973;43.742;1.236;2023-04-25T03:50:41;1.40;;;1.00;;
44276;SDS011;29973;43.742;1.236;2023-04-25T03:53:06;1.75;;;0.80;;
44276;SDS011;29973;43.742;1.236;2023-04-25T03:55:32;1.67;;;0.90;;
44276;SDS011;29973;43.742;1.236;2023-04-25T03:57:58;3.47;;;0.90;;
44276;SDS011;29973;43.742;1.236;2023-04-25T04:00:24;1.85;;;1.25;;
44276;SDS011;29973;43.742;1.236;2023-04-25T04:02:50;1.98;;;1.08;;
44276;SDS011;29973;43.742;1.236;2023-04-25T04:05:16;1.08;;;1.00;;
44276;SDS011;29973;43.742;1.236;2023-04-25T04:07:41;1.30;;;1.08;;
44276;SDS011;29973;43.742;1.236;2023-04-25T04:10:08;5.38;;;1.63;;
44276;SDS011;29973;43.742;1.236;2023-04-25T04:12:34;2.35;;;1.20;;
44276;SDS011;29973;43.742;1.236;2023-04-25T04:15:01;1.75;;;0.98;;
44276;SDS011;29973;43.742;1.236;2023-04-25T04:17:28;3.30;;;1.08;;
44276;SDS011;29973;43.742;1.236;2023-04-25T04:19:54;1.90;;;1.05;;
44276;SDS011;29973;43.742;1.236;2023-04-25T04:22:21;3.47;;;0.93;;
44276;SDS011;29973;43.742;1.236;2023-04-25T04:24:47;1.25;;;1.15;;
44276;SDS011;29973;43.742;1.236;2023-04-25T04:27:12;1.10;;;1.00;;
44276;SDS011;29973;43.742;1.236;2023-04-25T04:29:38;1.17;;;1.00;;
44276;SDS011;29973;43.742;1.236;2023-04-25T04:32:04;2.33;;;0.88;;
44276;SDS011;29973;43.742;1.236;2023-04-25T04:34:30;1.13;;;1.00;;
44276;SDS011;29973;43.742;1.236;2023-04-25T04:36:56;1.95;;;1.08;;
44276;SDS011;29973;43.742;1.236;2023-04-25T04:39:22;1.70;;;1.05;;
44276;SDS011;29973;43.742;1.236;2023-04-25T04:41:48;2.53;;;1.27;;
44276;SDS011;29973;43.742;1.236;2023-04-25T04:44:13;1.20;;;1.00;;
44276;SDS011;29973;43.742;1.236;2023-04-25T04:46:40;2.25;;;1.00;;
44276;SDS011;29973;43.742;1.236;2023-04-25T04:49:10;1.45;;;1.08;;
44276;SDS011;29973;43.742;1.236;2023-04-25T04:51:37;2.40;;;1.08;;
44276;SDS011;29973;43.742;1.236;2023-04-25T04:54:03;1.15;;;0.85;;
44276;SDS011;29973;43.742;1.236;2023-04-25T04:56:30;1.23;;;0.90;;
44276;SDS011;29973;43.742;1.236;2023-04-25T04:58:59;3.63;;;1.38;;
44276;SDS011;29973;43.742;1.236;2023-04-25T05:01:25;2.65;;;1.17;;
44276;SDS011;29973;43.742;1.236;2023-04-25T05:03:51;2.72;;;1.13;;
44276;SDS011;29973;43.742;1.236;2023-04-25T05:06:20;2.92;;;1.33;;
44276;SDS011;29973;43.742;1.236;2023-04-25T05:08:46;1.25;;;1.10;;
44276;SDS011;29973;43.742;1.236;2023-04-25T05:11:12;1.95;;;1.40;;
44276;SDS011;29973;43.742;1.236;2023-04-25T05:13:37;1.15;;;1.05;;
44276;SDS011;29973;43.742;1.236;2023-04-25T05:16:03;1.48;;;1.30;;
44276;SDS011;29973;43.742;1.236;2023-04-25T05:18:29;1.73;;;1.48;;
44276;SDS011;29973;43.742;1.236;2023-04-25T05:20:55;1.42;;;1.30;;
44276;SDS011;29973;43.742;1.236;2023-04-25T05:23:20;1.90;;;1.50;;
44276;SDS011;29973;43.742;1.236;2023-04-25T05:25:46;2.22;;;1.70;;
44276;SDS011;29973;43.742;1.236;2023-04-25T05:28:12;2.85;;;1.30;;
44276;SDS011;29973;43.742;1.236;2023-04-25T05:30:38;3.03;;;1.35;;
44276;SDS011;29973;43.742;1.236;2023-04-25T05:33:04;1.85;;;1.60;;
44276;SDS011;29973;43.742;1.236;2023-04-25T05:35:29;4.85;;;1.52;;
44276;SDS011;29973;43.742;1.236;2023-04-25T05:37:55;1.70;;;1.60;;
44276;SDS011;29973;43.742;1.236;2023-04-25T05:40:21;2.15;;;1.80;;
44276;SDS011;29973;43.742;1.236;2023-04-25T05:42:47;3.53;;;1.20;;
44276;SDS011;29973;43.742;1.236;2023-04-25T05:45:12;3.33;;;1.50;;
44276;SDS011;29973;43.742;1.236;2023-04-25T05:47:38;2.38;;;1.50;;
44276;SDS011;29973;43.742;1.236;2023-04-25T05:50:04;6.05;;;1.30;;
44276;SDS011;29973;43.742;1.236;2023-04-25T05:52:31;3.35;;;1.42;;
44276;SDS011;29973;43.742;1.236;2023-04-25T05:54:56;1.40;;;1.30;;
44276;SDS011;29973;43.742;1.236;2023-04-25T05:57:26;3.03;;;1.20;;
44276;SDS011;29973;43.742;1.236;2023-04-25T05:59:52;2.30;;;1.17;;
44276;SDS011;29973;43.742;1.236;2023-04-25T06:02:19;2.70;;;1.25;;
44276;SDS011;29973;43.742;1.236;2023-04-25T06:04:46;1.77;;;1.42;;
44276;SDS011;29973;43.742;1.236;2023-04-25T06:07:13;5.07;;;1.35;;
44276;SDS011;29973;43.742;1.236;2023-04-25T06:09:38;4.20;;;1.50;;
44276;SDS011;29973;43.742;1.236;2023-04-25T06:12:05;5.03;;;1.50;;
44276;SDS011;29973;43.742;1.236;2023-04-25T06:14:31;8.63;;;1.88;;
44276;SDS011;29973;43.742;1.236;2023-04-25T06:16:57;3.92;;;1.13;;
44276;SDS011;29973;43.742;1.236;2023-04-25T06:19:23;3.58;;;1.70;;
44276;SDS011;29973;43.742;1.236;2023-04-25T06:21:48;3.42;;;1.50;;
44276;SDS011;29973;43.742;1.236;2023-04-25T06:24:14;2.50;;;1.27;;
44276;SDS011;29973;43.742;1.236;2023-04-25T06:26:40;1.25;;;1.15;;
44276;SDS011;29973;43.742;1.236;2023-04-25T06:29:05;2.78;;;1.30;;
44276;SDS011;29973;43.742;1.236;2023-04-25T06:31:31;3.38;;;1.50;;
44276;SDS011;29973;43.742;1.236;2023-04-25T06:34:00;3.08;;;1.42;;
44276;SDS011;29973;43.742;1.236;2023-04-25T06:36:25;4.18;;;1.02;;
44276;SDS011;29973;43.742;1.236;2023-04-25T06:38:52;5.47;;;1.52;;
44276;SDS011;29973;43.742;1.236;2023-04-25T06:41:19;7.68;;;1.33;;
44276;SDS011;29973;43.742;1.236;2023-04-25T06:43:45;0.70;;;0.70;;
44276;SDS011;29973;43.742;1.236;2023-04-25T06:46:11;1.27;;;1.00;;
44276;SDS011;29973;43.742;1.236;2023-04-25T06:48:37;0.60;;;0.60;;
44276;SDS011;29973;43.742;1.236;2023-04-25T06:51:02;3.33;;;0.60;;
44276;SDS011;29973;43.742;1.236;2023-04-25T06:53:28;2.67;;;0.70;;
44276;SDS011;29973;43.742;1.236;2023-04-25T06:55:54;1.17;;;0.98;;
44276;SDS011;29973;43.742;1.236;2023-04-25T06:58:20;0.93;;;0.90;;
44276;SDS011;29973;43.742;1.236;2023-04-25T07:00:46;1.77;;;1.08;;
44276;SDS011;29973;43.742;1.236;2023-04-25T07:03:11;1.33;;;1.00;;
44276;SDS011;29973;43.742;1.236;2023-04-25T07:05:37;4.00;;;1.05;;
44276;SDS011;29973;43.742;1.236;2023-04-25T07:08:03;1.85;;;1.10;;
44276;SDS011;29973;43.742;1.236;2023-04-25T07:10:29;1.42;;;1.17;;
44276;SDS011;29973;43.742;1.236;2023-04-25T07:12:54;1.02;;;0.88;;
44276;SDS011;29973;43.742;1.236;2023-04-25T07:15:20;1.23;;;1.15;;
44276;SDS011;29973;43.742;1.236;2023-04-25T07:17:46;2.63;;;1.45;;
44276;SDS011;29973;43.742;1.236;2023-04-25T07:20:11;1.65;;;1.48;;
44276;SDS011;29973;43.742;1.236;2023-04-25T07:22:37;1.85;;;1.48;;
44276;SDS011;29973;43.742;1.236;2023-04-25T07:25:03;2.30;;;2.05;;
44276;SDS011;29973;43.742;1.236;2023-04-25T07:27:30;2.55;;;1.40;;
44276;SDS011;29973;43.742;1.236;2023-04-25T07:29:56;2.50;;;1.30;;
44276;SDS011;29973;43.742;1.236;2023-04-25T07:32:22;5.20;;;1.30;;
44276;SDS011;29973;43.742;1.236;2023-04-25T07:34:48;3.78;;;1.60;;
44276;SDS011;29973;43.742;1.236;2023-04-25T07:37:13;1.60;;;1.50;;
44276;SDS011;29973;43.742;1.236;2023-04-25T07:39:40;1.52;;;1.42;;
44276;SDS011;29973;43.742;1.236;2023-04-25T07:42:05;2.53;;;1.20;;
44276;SDS011;29973;43.742;1.236;2023-04-25T07:44:33;1.40;;;1.30;;
44276;SDS011;29973;43.742;1.236;2023-04-25T07:47:07;2.50;;;1.70;;
44276;SDS011;29973;43.742;1.236;2023-04-25T07:49:33;1.65;;;1.48;;
44276;SDS011;29973;43.742;1.236;2023-04-25T07:52:00;1.80;;;1.30;;
44276;SDS011;29973;43.742;1.236;2023-04-25T07:54:27;1.70;;;1.50;;
44276;SDS011;29973;43.742;1.236;2023-04-25T07:56:52;5.43;;;1.55;;
44276;SDS011;29973;43.742;1.236;2023-04-25T07:59:18;3.75;;;1.77;;
44276;SDS011;29973;43.742;1.236;2023-04-25T08:01:44;2.28;;;2.08;;
44276;SDS011;29973;43.742;1.236;2023-04-25T08:04:10;1.73;;;1.30;;
44276;SDS011;29973;43.742;1.236;2023-04-25T08:06:36;1.83;;;1.52;;
44276;SDS011;29973;43.742;1.236;2023-04-25T08:09:02;2.97;;;1.70;;
44276;SDS011;29973;43.742;1.236;2023-04-25T08:11:28;2.28;;;1.70;;
44276;SDS011;29973;43.742;1.236;2023-04-25T08:13:53;1.52;;;1.20;;
44276;SDS011;29973;43.742;1.236;2023-04-25T08:16:19;24.88;;;11.75;;
44276;SDS011;29973;43.742;1.236;2023-04-25T08:18:45;9.93;;;5.30;;
44276;SDS011;29973;43.742;1.236;2023-04-25T08:21:11;5.25;;;3.38;;
44276;SDS011;29973;43.742;1.236;2023-04-25T08:23:37;3.83;;;2.22;;
44276;SDS011;29973;43.742;1.236;2023-04-25T08:26:03;2.47;;;2.13;;
44276;SDS011;29973;43.742;1.236;2023-04-25T08:28:30;1.20;;;1.10;;
44276;SDS011;29973;43.742;1.236;2023-04-25T08:30:56;1.20;;;1.10;;
44276;SDS011;29973;43.742;1.236;2023-04-25T08:33:22;1.80;;;1.20;;
44276;SDS011;29973;43.742;1.236;2023-04-25T08:35:47;2.35;;;1.20;;
44276;SDS011;29973;43.742;1.236;2023-04-25T08:38:13;1.98;;;1.25;;
44276;SDS011;29973;43.742;1.236;2023-04-25T08:40:39;1.77;;;1.20;;
44276;SDS011;29973;43.742;1.236;2023-04-25T08:43:06;1.13;;;1.02;;
44276;SDS011;29973;43.742;1.236;2023-04-25T08:45:39;3.72;;;1.40;;
44276;SDS011;29973;43.742;1.236;2023-04-25T08:48:16;7.18;;;1.50;;
44276;SDS011;29973;43.742;1.236;2023-04-25T08:50:49;1.30;;;1.20;;
44276;SDS011;29973;43.742;1.236;2023-04-25T08:53:17;1.60;;;1.50;;
44276;SDS011;29973;43.742;1.236;2023-04-25T08:55:50;2.75;;;1.50;;
44276;SDS011;29973;43.742;1.236;2023-04-25T08:58:19;2.95;;;1.60;;
44276;SDS011;29973;43.742;1.236;2023-04-25T09:00:46;1.88;;;1.77;;
44276;SDS011;29973;43.742;1.236;2023-04-25T09:03:14;1.58;;;1.48;;
44276;SDS011;29973;43.742;1.236;2023-04-25T09:05:41;2.05;;;1.60;;
44276;SDS011;29973;43.742;1.236;2023-04-25T09:08:07;2.58;;;1.70;;
44276;SDS011;29973;43.742;1.236;2023-04-25T09:10:33;4.78;;;1.58;;
44276;SDS011;29973;43.742;1.236;2023-04-25T09:13:12;1.85;;;1.70;;
44276;SDS011;29973;43.742;1.236;2023-04-25T09:15:52;1.70;;;1.60;;
44276;SDS011;29973;43.742;1.236;2023-04-25T09:18:26;1.60;;;1.48;;
44276;SDS011;29973;43.742;1.236;2023-04-25T09:21:08;1.75;;;1.65;;
44276;SDS011;29973;43.742;1.236;2023-04-25T09:26:13;2.22;;;1.70;;
44276;SDS011;29973;43.742;1.236;2023-04-25T09:28:43;3.83;;;1.50;;
44276;SDS011;29973;43.742;1.236;2023-04-25T09:31:12;1.67;;;1.15;;
44276;SDS011;29973;43.742;1.236;2023-04-25T09:33:37;2.70;;;1.50;;
44276;SDS011;29973;43.742;1.236;2023-04-25T09:36:07;3.10;;;2.00;;
44276;SDS011;29973;43.742;1.236;2023-04-25T09:38:39;5.45;;;1.58;;
44276;SDS011;29973;43.742;1.236;2023-04-25T09:41:09;1.50;;;1.33;;
44276;SDS011;29973;43.742;1.236;2023-04-25T09:43:36;1.33;;;1.20;;
44276;SDS011;29973;43.742;1.236;2023-04-25T09:46:02;2.78;;;1.30;;
44276;SDS011;29973;43.742;1.236;2023-04-25T09:48:33;2.35;;;1.58;;
44276;SDS011;29973;43.742;1.236;2023-04-25T09:53:40;1.85;;;1.50;;
44276;SDS011;29973;43.742;1.236;2023-04-25T09:56:08;3.38;;;1.60;;
44276;SDS011;29973;43.742;1.236;2023-04-25T09:58:35;3.08;;;2.78;;
44276;SDS011;29973;43.742;1.236;2023-04-25T10:01:03;3.65;;;2.17;;
44276;SDS011;29973;43.742;1.236;2023-04-25T10:03:31;1.88;;;1.42;;
44276;SDS011;29973;43.742;1.236;2023-04-25T10:06:06;1.23;;;1.13;;
44276;SDS011;29973;43.742;1.236;2023-04-25T10:08:34;3.15;;;1.25;;
44276;SDS011;29973;43.742;1.236;2023-04-25T10:11:04;1.55;;;1.35;;
44276;SDS011;29973;43.742;1.236;2023-04-25T10:13:32;3.80;;;1.20;;
44276;SDS011;29973;43.742;1.236;2023-04-25T10:15:59;1.42;;;1.20;;
44276;SDS011;29973;43.742;1.236;2023-04-25T10:18:29;2.47;;;1.60;;
44276;SDS011;29973;43.742;1.236;2023-04-25T10:20:56;1.42;;;1.33;;
44276;SDS011;29973;43.742;1.236;2023-04-25T10:23:26;1.65;;;1.45;;
44276;SDS011;29973;43.742;1.236;2023-04-25T10:25:54;2.15;;;1.50;;
44276;SDS011;29973;43.742;1.236;2023-04-25T10:28:21;3.40;;;2.20;;
44276;SDS011;29973;43.742;1.236;2023-04-25T10:33:33;1.77;;;1.00;;
44276;SDS011;29973;43.742;1.236;2023-04-25T10:36:13;1.02;;;1.00;;
44276;SDS011;29973;43.742;1.236;2023-04-25T10:38:40;2.00;;;1.80;;
44276;SDS011;29973;43.742;1.236;2023-04-25T10:41:08;4.47;;;1.92;;
44276;SDS011;29973;43.742;1.236;2023-04-25T10:43:42;7.03;;;3.42;;
44276;SDS011;29973;43.742;1.236;2023-04-25T10:46:19;12.20;;;5.35;;
44276;SDS011;29973;43.742;1.236;2023-04-25T10:48:51;3.95;;;1.77;;
44276;SDS011;29973;43.742;1.236;2023-04-25T10:51:23;3.42;;;1.48;;
44276;SDS011;29973;43.742;1.236;2023-04-25T10:56:27;2.25;;;1.40;;
44276;SDS011;29973;43.742;1.236;2023-04-25T11:01:55;1.75;;;1.30;;
44276;SDS011;29973;43.742;1.236;2023-04-25T11:09:47;3.92;;;1.33;;
44276;SDS011;29973;43.742;1.236;2023-04-25T11:12:15;1.50;;;1.10;;
44276;SDS011;29973;43.742;1.236;2023-04-25T11:14:42;1.40;;;1.25;;
44276;SDS011;29973;43.742;1.236;2023-04-25T11:17:07;2.80;;;1.23;;
44276;SDS011;29973;43.742;1.236;2023-04-25T11:19:33;2.13;;;1.52;;
44276;SDS011;29973;43.742;1.236;2023-04-25T11:22:00;1.70;;;1.30;;
44276;SDS011;29973;43.742;1.236;2023-04-25T11:24:27;3.47;;;1.40;;
44276;SDS011;29973;43.742;1.236;2023-04-25T11:26:53;1.70;;;1.38;;
44276;SDS011;29973;43.742;1.236;2023-04-25T11:29:23;1.50;;;1.40;;
44276;SDS011;29973;43.742;1.236;2023-04-25T11:31:51;2.38;;;1.30;;
44276;SDS011;29973;43.742;1.236;2023-04-25T11:34:18;2.30;;;1.27;;
44276;SDS011;29973;43.742;1.236;2023-04-25T11:36:44;2.90;;;1.50;;
44276;SDS011;29973;43.742;1.236;2023-04-25T11:39:11;1.73;;;1.20;;
44276;SDS011;29973;43.742;1.236;2023-04-25T11:41:37;1.55;;;1.20;;
44276;SDS011;29973;43.742;1.236;2023-04-25T11:44:03;1.58;;;1.48;;
44276;SDS011;29973;43.742;1.236;2023-04-25T11:46:30;1.70;;;1.33;;
44276;SDS011;29973;43.742;1.236;2023-04-25T11:48:59;1.50;;;1.40;;
44276;SDS011;29973;43.742;1.236;2023-04-25T11:51:25;1.42;;;1.33;;
44276;SDS011;29973;43.742;1.236;2023-04-25T11:53:52;3.20;;;1.40;;
44276;SDS011;29973;43.742;1.236;2023-04-25T11:56:17;1.40;;;1.30;;
44276;SDS011;29973;43.742;1.236;2023-04-25T11:58:59;1.67;;;1.48;;
44276;SDS011;29973;43.742;1.236;2023-04-25T12:01:33;1.33;;;1.20;;
44276;SDS011;29973;43.742;1.236;2023-04-25T12:06:39;1.33;;;1.23;;
44276;SDS011;29973;43.742;1.236;2023-04-25T12:09:10;2.97;;;1.80;;
44276;SDS011;29973;43.742;1.236;2023-04-25T12:11:41;1.70;;;1.50;;
44276;SDS011;29973;43.742;1.236;2023-04-25T12:14:11;1.40;;;1.30;;
44276;SDS011;29973;43.742;1.236;2023-04-25T12:16:48;1.63;;;1.52;;
44276;SDS011;29973;43.742;1.236;2023-04-25T12:19:17;1.85;;;1.75;;
44276;SDS011;29973;43.742;1.236;2023-04-25T12:21:46;3.35;;;1.75;;
44276;SDS011;29973;43.742;1.236;2023-04-25T12:24:23;4.47;;;1.80;;
44276;SDS011;29973;43.742;1.236;2023-04-25T12:27:00;2.15;;;1.80;;
44276;SDS011;29973;43.742;1.236;2023-04-25T12:29:34;2.50;;;1.55;;
44276;SDS011;29973;43.742;1.236;2023-04-25T12:31:59;2.50;;;1.45;;
44276;SDS011;29973;43.742;1.236;2023-04-25T12:34:27;1.80;;;1.35;;
44276;SDS011;29973;43.742;1.236;2023-04-25T12:36:53;3.92;;;1.50;;
44276;SDS011;29973;43.742;1.236;2023-04-25T12:39:23;1.33;;;1.23;;
44276;SDS011;29973;43.742;1.236;2023-04-25T12:41:50;2.13;;;1.83;;
44276;SDS011;29973;43.742;1.236;2023-04-25T12:44:20;1.65;;;1.50;;
44276;SDS011;29973;43.742;1.236;2023-04-25T12:46:46;2.28;;;1.50;;
44276;SDS011;29973;43.742;1.236;2023-04-25T12:49:13;4.00;;;2.75;;
44276;SDS011;29973;43.742;1.236;2023-04-25T12:51:38;3.55;;;1.70;;
44276;SDS011;29973;43.742;1.236;2023-04-25T12:54:05;2.40;;;1.67;;
44276;SDS011;29973;43.742;1.236;2023-04-25T12:56:32;4.45;;;2.10;;
44276;SDS011;29973;43.742;1.236;2023-04-25T12:58:58;2.42;;;1.77;;
44276;SDS011;29973;43.742;1.236;2023-04-25T13:01:24;2.53;;;1.55;;
44276;SDS011;29973;43.742;1.236;2023-04-25T13:03:51;2.58;;;1.38;;
44276;SDS011;29973;43.742;1.236;2023-04-25T13:06:17;2.50;;;1.85;;
44276;SDS011;29973;43.742;1.236;2023-04-25T13:08:44;1.70;;;1.60;;
44276;SDS011;29973;43.742;1.236;2023-04-25T13:11:11;1.63;;;1.52;;
44276;SDS011;29973;43.742;1.236;2023-04-25T13:13:37;2.50;;;1.73;;
44276;SDS011;29973;43.742;1.236;2023-04-25T13:16:03;3.65;;;2.00;;
44276;SDS011;29973;43.742;1.236;2023-04-25T13:18:30;2.92;;;1.90;;
44276;SDS011;29973;43.742;1.236;2023-04-25T13:20:56;2.85;;;1.70;;
44276;SDS011;29973;43.742;1.236;2023-04-25T13:23:23;1.45;;;1.35;;
44276;SDS011;29973;43.742;1.236;2023-04-25T13:25:50;1.45;;;1.02;;
44276;SDS011;29973;43.742;1.236;2023-04-25T13:28:15;4.25;;;1.70;;
44276;SDS011;29973;43.742;1.236;2023-04-25T13:30:41;2.55;;;1.50;;
44276;SDS011;29973;43.742;1.236;2023-04-25T13:33:07;1.17;;;1.05;;
44276;SDS011;29973;43.742;1.236;2023-04-25T13:35:34;1.15;;;1.02;;
44276;SDS011;29973;43.742;1.236;2023-04-25T13:38:02;1.55;;;1.17;;
44276;SDS011;29973;43.742;1.236;2023-04-25T13:40:28;1.75;;;1.10;;
44276;SDS011;29973;43.742;1.236;2023-04-25T13:42:54;1.45;;;1.35;;
44276;SDS011;29973;43.742;1.236;2023-04-25T13:45:20;1.20;;;1.10;;
44276;SDS011;29973;43.742;1.236;2023-04-25T13:47:46;1.08;;;1.02;;
44276;SDS011;29973;43.742;1.236;2023-04-25T13:50:12;3.67;;;1.30;;
44276;SDS011;29973;43.742;1.236;2023-04-25T13:52:39;3.15;;;1.08;;
44276;SDS011;29973;43.742;1.236;2023-04-25T13:55:05;1.80;;;1.38;;
44276;SDS011;29973;43.742;1.236;2023-04-25T13:57:32;1.50;;;1.23;;
44276;SDS011;29973;43.742;1.236;2023-04-25T13:59:58;1.50;;;1.40;;
44276;SDS011;29973;43.742;1.236;2023-04-25T14:02:29;3.03;;;1.23;;
44276;SDS011;29973;43.742;1.236;2023-04-25T14:04:55;3.45;;;1.40;;
44276;SDS011;29973;43.742;1.236;2023-04-25T14:07:21;2.90;;;1.48;;
44276;SDS011;29973;43.742;1.236;2023-04-25T14:09:46;1.08;;;0.90;;
44276;SDS011;29973;43.742;1.236;2023-04-25T14:12:12;1.75;;;1.20;;
44276;SDS011;29973;43.742;1.236;2023-04-25T14:14:38;1.70;;;1.10;;
44276;SDS011;29973;43.742;1.236;2023-04-25T14:17:03;1.15;;;0.80;;
44276;SDS011;29973;43.742;1.236;2023-04-25T14:19:30;1.98;;;1.20;;
44276;SDS011;29973;43.742;1.236;2023-04-25T14:21:55;1.10;;;1.00;;
44276;SDS011;29973;43.742;1.236;2023-04-25T14:24:21;1.23;;;1.00;;
44276;SDS011;29973;43.742;1.236;2023-04-25T14:26:47;0.82;;;0.82;;
44276;SDS011;29973;43.742;1.236;2023-04-25T14:29:13;1.10;;;1.00;;
44276;SDS011;29973;43.742;1.236;2023-04-25T14:31:39;1.63;;;0.98;;
44276;SDS011;29973;43.742;1.236;2023-04-25T14:34:05;3.35;;;1.00;;
44276;SDS011;29973;43.742;1.236;2023-04-25T14:36:32;2.70;;;0.90;;
44276;SDS011;29973;43.742;1.236;2023-04-25T14:38:58;2.78;;;1.20;;
44276;SDS011;29973;43.742;1.236;2023-04-25T14:41:24;1.92;;;1.10;;
44276;SDS011;29973;43.742;1.236;2023-04-25T14:43:51;2.28;;;1.15;;
44276;SDS011;29973;43.742;1.236;2023-04-25T14:46:21;1.70;;;1.00;;
44276;SDS011;29973;43.742;1.236;2023-04-25T14:48:48;4.68;;;0.98;;
44276;SDS011;29973;43.742;1.236;2023-04-25T14:51:14;1.63;;;1.08;;
44276;SDS011;29973;43.742;1.236;2023-04-25T14:53:40;5.53;;;1.33;;
44276;SDS011;29973;43.742;1.236;2023-04-25T14:56:06;1.70;;;1.30;;
44276;SDS011;29973;43.742;1.236;2023-04-25T14:58:32;2.15;;;1.10;;
44276;SDS011;29973;43.742;1.236;2023-04-25T15:00:58;0.95;;;0.95;;
44276;SDS011;29973;43.742;1.236;2023-04-25T15:03:24;1.77;;;1.40;;
44276;SDS011;29973;43.742;1.236;2023-04-25T15:05:51;1.30;;;1.20;;
44276;SDS011;29973;43.742;1.236;2023-04-25T15:08:17;3.22;;;1.58;;